createdAt,value
2018-07-08T00:01:04.244Z,16.30
2018-07-08T00:03:32.228Z,16.20
2018-07-08T00:06:00.149Z,16.10
2018-07-08T00:08:28.120Z,16.20
2018-07-08T00:10:59.608Z,16.20
2018-07-08T00:13:27.523Z,16.20
2018-07-08T00:15:55.502Z,16.20
2018-07-08T00:18:24.093Z,16.20
2018-07-08T00:20:53.108Z,16.30
2018-07-08T00:23:21.979Z,16.30
2018-07-08T00:25:49.974Z,16.30
2018-07-08T00:28:18.135Z,16.40
2018-07-08T00:30:46.137Z,16.40
2018-07-08T00:33:14.123Z,16.40
2018-07-08T00:35:42.063Z,16.50
2018-07-08T00:38:10.033Z,16.50
2018-07-08T00:40:37.942Z,16.30
2018-07-08T00:43:05.870Z,16.30
2018-07-08T00:45:33.824Z,16.30
2018-07-08T00:48:01.747Z,16.30
2018-07-08T00:50:29.657Z,16.30
2018-07-08T00:52:57.644Z,16.50
2018-07-08T00:55:25.555Z,16.60
2018-07-08T00:57:53.548Z,16.50
2018-07-08T01:00:30.498Z,16.50
2018-07-08T01:02:58.886Z,16.50
2018-07-08T01:05:27.057Z,16.50
2018-07-08T01:07:54.962Z,16.50
2018-07-08T01:10:22.919Z,16.50
2018-07-08T01:12:50.830Z,16.50
2018-07-08T01:15:18.787Z,16.40
2018-07-08T01:17:46.705Z,16.40
2018-07-08T01:20:14.618Z,16.50
2018-07-08T01:22:42.562Z,16.40
2018-07-08T01:25:14.391Z,16.40
2018-07-08T01:27:42.340Z,16.30
2018-07-08T01:30:11.746Z,16.40
2018-07-08T01:32:39.768Z,16.50
2018-07-08T01:35:07.710Z,16.40
2018-07-08T01:37:35.658Z,16.40
2018-07-08T01:40:04.195Z,16.40
2018-07-08T01:42:32.177Z,16.50
2018-07-08T01:45:00.574Z,16.40
2018-07-08T01:47:28.550Z,16.30
2018-07-08T01:49:56.476Z,16.30
2018-07-08T01:52:25.421Z,16.20
2018-07-08T01:54:54.125Z,16.30
2018-07-08T01:57:22.583Z,16.20
2018-07-08T01:59:51.345Z,16.20
2018-07-08T02:02:19.877Z,16.20
2018-07-08T02:04:48.326Z,16.10
2018-07-08T02:07:16.627Z,16.10
2018-07-08T02:09:44.916Z,15.90
2018-07-08T02:12:12.863Z,15.90
2018-07-08T02:14:40.814Z,15.80
2018-07-08T02:17:08.746Z,15.80
2018-07-08T02:19:36.823Z,15.80
2018-07-08T02:22:04.766Z,15.90
2018-07-08T02:24:32.741Z,15.90
2018-07-08T02:27:00.701Z,15.70
2018-07-08T02:29:28.747Z,15.60
2018-07-08T02:31:56.671Z,15.50
2018-07-08T02:34:25.247Z,15.50
2018-07-08T02:36:53.323Z,15.40
2018-07-08T02:39:22.028Z,15.40
2018-07-08T02:41:50.212Z,15.40
2018-07-08T02:44:18.235Z,15.40
2018-07-08T02:46:46.177Z,15.40
2018-07-08T02:49:14.150Z,15.50
2018-07-08T02:51:42.075Z,15.50
2018-07-08T02:54:10.032Z,15.40
2018-07-08T02:56:37.988Z,15.40
2018-07-08T02:59:05.927Z,15.30
2018-07-08T03:01:33.903Z,15.30
2018-07-08T03:04:01.825Z,15.10
2018-07-08T03:06:29.773Z,15.10
2018-07-08T03:08:57.701Z,15.10
2018-07-08T03:11:25.614Z,15.10
2018-07-08T03:13:53.590Z,15.20
2018-07-08T03:16:21.536Z,15.10
2018-07-08T03:18:49.469Z,15.00
2018-07-08T03:21:17.388Z,15.00
2018-07-08T03:23:45.407Z,14.90
2018-07-08T03:26:13.341Z,14.90
2018-07-08T03:28:41.292Z,14.90
2018-07-08T03:31:09.199Z,15.00
2018-07-08T03:33:37.133Z,14.90
2018-07-08T03:36:05.159Z,14.90
2018-07-08T03:38:33.089Z,15.00
2018-07-08T03:41:01.023Z,14.90
2018-07-08T03:43:28.934Z,15.00
2018-07-08T03:45:56.845Z,15.10
2018-07-08T03:48:24.812Z,15.00
2018-07-08T03:50:52.800Z,15.00
2018-07-08T03:53:20.762Z,15.00
2018-07-08T03:55:48.715Z,15.10
2018-07-08T03:58:16.652Z,15.10
2018-07-08T04:00:44.636Z,15.00
2018-07-08T04:03:12.565Z,15.00
2018-07-08T04:05:40.525Z,15.00
2018-07-08T04:08:08.442Z,14.90
2018-07-08T04:10:36.367Z,15.00
2018-07-08T04:13:04.311Z,14.80
2018-07-08T04:15:32.240Z,14.80
2018-07-08T04:18:07.535Z,14.80
2018-07-08T04:20:36.502Z,14.80
2018-07-08T04:23:04.474Z,14.80
2018-07-08T04:25:33.182Z,14.90
2018-07-08T04:28:01.226Z,14.90
2018-07-08T04:30:29.915Z,15.10
2018-07-08T04:32:57.793Z,15.20
2018-07-08T04:35:26.034Z,15.30
2018-07-08T04:37:54.002Z,15.30
2018-07-08T04:40:21.937Z,15.20
2018-07-08T04:42:49.889Z,15.10
2018-07-08T04:45:17.855Z,15.20
2018-07-08T04:47:45.811Z,15.30
2018-07-08T04:50:13.785Z,15.20
2018-07-08T04:52:41.819Z,15.30
2018-07-08T04:55:09.836Z,15.40
2018-07-08T04:57:37.800Z,15.40
2018-07-08T05:00:05.718Z,15.30
2018-07-08T05:02:33.686Z,15.40
2018-07-08T05:05:01.644Z,15.40
2018-07-08T05:07:29.559Z,15.50
2018-07-08T05:09:57.633Z,15.70
2018-07-08T05:12:25.879Z,15.70
2018-07-08T05:14:53.844Z,15.80
2018-07-08T05:17:21.757Z,15.80
2018-07-08T05:19:49.810Z,16.00
2018-07-08T05:22:17.743Z,16.00
2018-07-08T05:24:45.678Z,16.00
2018-07-08T05:27:13.672Z,16.00
2018-07-08T05:29:41.611Z,16.10
2018-07-08T05:32:09.525Z,16.20
2018-07-08T05:34:37.514Z,16.30
2018-07-08T05:37:06.022Z,16.30
2018-07-08T05:39:33.962Z,16.40
2018-07-08T05:42:01.896Z,16.50
2018-07-08T05:44:29.842Z,16.50
2018-07-08T05:46:57.803Z,16.40
2018-07-08T05:49:25.735Z,16.70
2018-07-08T05:51:53.697Z,16.90
2018-07-08T05:54:21.628Z,16.80
2018-07-08T05:56:49.537Z,16.90
2018-07-08T05:59:17.508Z,16.80
2018-07-08T06:01:45.433Z,16.90
2018-07-08T06:04:13.395Z,17.00
2018-07-08T06:06:41.318Z,17.00
2018-07-08T06:09:09.241Z,17.00
2018-07-08T06:11:37.282Z,17.10
2018-07-08T06:14:05.312Z,17.10
2018-07-08T06:16:33.300Z,17.20
2018-07-08T06:19:01.247Z,17.50
2018-07-08T06:21:29.149Z,17.30
2018-07-08T06:23:57.090Z,17.40
2018-07-08T06:26:25.020Z,17.50
2018-07-08T06:28:53.000Z,17.50
2018-07-08T06:31:20.937Z,17.50
2018-07-08T06:33:48.903Z,17.70
2018-07-08T06:36:18.915Z,17.50
2018-07-08T06:38:48.029Z,17.80
2018-07-08T06:41:16.025Z,17.90
2018-07-08T06:43:43.987Z,17.70
2018-07-08T06:46:11.924Z,18.10
2018-07-08T06:48:39.957Z,18.30
2018-07-08T06:51:07.886Z,18.40
2018-07-08T06:53:35.883Z,18.30
2018-07-08T06:56:03.819Z,18.50
2018-07-08T06:58:31.746Z,18.60
2018-07-08T07:00:59.719Z,18.80
2018-07-08T07:03:27.666Z,18.80
2018-07-08T07:05:55.615Z,18.70
2018-07-08T07:08:23.511Z,19.00
2018-07-08T07:10:51.577Z,19.00
2018-07-08T07:13:19.569Z,18.80
2018-07-08T07:15:47.521Z,19.10
2018-07-08T07:18:15.468Z,19.10
2018-07-08T07:20:43.412Z,19.60
2018-07-08T07:23:11.336Z,19.80
2018-07-08T07:25:39.270Z,19.80
2018-07-08T07:28:07.189Z,20.00
2018-07-08T07:30:35.207Z,20.30
2018-07-08T07:33:03.172Z,20.30
2018-07-08T07:35:31.158Z,20.10
2018-07-08T07:37:59.107Z,20.30
2018-07-08T07:40:27.016Z,20.30
2018-07-08T07:42:54.973Z,20.50
2018-07-08T07:45:22.950Z,20.80
2018-07-08T07:47:50.906Z,20.60
2018-07-08T07:50:18.832Z,21.10
2018-07-08T07:52:46.775Z,21.10
2018-07-08T07:55:14.717Z,21.00
2018-07-08T07:57:42.635Z,21.40
2018-07-08T08:00:10.598Z,21.50
2018-07-08T08:02:38.517Z,21.20
2018-07-08T08:05:06.422Z,21.60
2018-07-08T08:07:34.386Z,21.30
2018-07-08T08:10:02.314Z,22.00
2018-07-08T08:12:30.286Z,22.20
2018-07-08T08:14:58.221Z,22.00
2018-07-08T08:17:26.150Z,22.00
2018-07-08T08:19:54.085Z,21.50
2018-07-08T08:22:22.010Z,22.00
2018-07-08T08:24:49.984Z,21.70
2018-07-08T08:27:17.901Z,21.60
2018-07-08T08:29:45.842Z,21.30
2018-07-08T08:32:13.788Z,21.30
2018-07-08T08:34:47.235Z,21.50
2018-07-08T08:37:15.176Z,21.40
2018-07-08T08:39:43.099Z,21.20
2018-07-08T08:42:11.011Z,21.70
2018-07-08T08:44:39.943Z,21.40
2018-07-08T08:47:07.876Z,21.70
2018-07-08T08:49:36.213Z,21.10
2018-07-08T08:52:04.308Z,20.90
2018-07-08T08:54:32.237Z,21.10
2018-07-08T08:57:00.217Z,21.10
2018-07-08T08:59:28.131Z,21.60
2018-07-08T09:01:56.092Z,21.70
2018-07-08T09:04:24.036Z,21.40
2018-07-08T09:06:52.037Z,21.10
2018-07-08T09:09:19.968Z,21.40
2018-07-08T09:11:47.930Z,21.00
2018-07-08T09:14:15.884Z,21.00
2018-07-08T09:16:43.925Z,21.10
2018-07-08T09:19:12.034Z,21.30
2018-07-08T09:21:39.998Z,21.00
2018-07-08T09:24:08.030Z,21.10
2018-07-08T09:26:35.955Z,21.30
2018-07-08T09:29:03.917Z,21.20
2018-07-08T09:31:31.873Z,21.10
2018-07-08T09:33:59.792Z,21.60
2018-07-08T09:36:27.755Z,21.70
2018-07-08T09:38:55.851Z,22.00
2018-07-08T09:41:23.684Z,22.10
2018-07-08T09:43:51.584Z,22.10
2018-07-08T09:46:19.516Z,21.90
2018-07-08T09:48:47.449Z,22.10
2018-07-08T09:51:15.405Z,22.30
2018-07-08T09:53:43.379Z,21.90
2018-07-08T09:56:11.357Z,22.00
2018-07-08T09:58:39.290Z,22.00
2018-07-08T10:01:07.231Z,21.80
2018-07-08T10:03:35.198Z,21.60
2018-07-08T10:06:04.421Z,21.40
2018-07-08T10:08:33.028Z,21.90
2018-07-08T10:11:01.011Z,21.80
2018-07-08T10:13:29.330Z,22.00
2018-07-08T10:15:57.313Z,22.20
2018-07-08T10:18:25.245Z,22.00
2018-07-08T10:20:53.216Z,21.90
2018-07-08T10:23:21.143Z,21.80
2018-07-08T10:25:49.089Z,22.30
2018-07-08T10:28:23.821Z,22.40
2018-07-08T10:30:52.176Z,22.70
2018-07-08T10:33:20.162Z,22.20
2018-07-08T10:36:05.999Z,22.60
2018-07-08T10:38:33.970Z,22.80
2018-07-08T10:41:01.889Z,22.60
2018-07-08T10:43:29.835Z,22.90
2018-07-08T10:45:57.730Z,23.20
2018-07-08T10:48:25.635Z,22.50
2018-07-08T10:50:53.600Z,22.90
2018-07-08T10:53:21.547Z,22.90
2018-07-08T10:55:49.486Z,23.20
2018-07-08T10:58:17.476Z,23.80
2018-07-08T11:00:45.421Z,23.30
2018-07-08T11:03:13.442Z,23.10
2018-07-08T11:05:41.393Z,23.00
2018-07-08T11:08:09.301Z,23.50
2018-07-08T11:10:37.273Z,23.60
2018-07-08T11:13:05.278Z,24.30
2018-07-08T11:15:33.233Z,24.20
2018-07-08T11:18:01.160Z,23.50
2018-07-08T11:20:29.125Z,23.20
2018-07-08T11:22:57.025Z,23.90
2018-07-08T11:25:24.968Z,24.10
2018-07-08T11:27:52.924Z,24.40
2018-07-08T11:30:20.865Z,24.70
2018-07-08T11:32:48.819Z,24.50
2018-07-08T11:35:16.780Z,25.20
2018-07-08T11:37:44.725Z,25.30
2018-07-08T11:40:12.707Z,25.70
2018-07-08T11:42:40.617Z,25.00
2018-07-08T11:45:08.546Z,24.90
2018-07-08T11:47:36.530Z,24.80
2018-07-08T11:50:04.514Z,24.30
2018-07-08T11:52:32.466Z,24.10
2018-07-08T11:55:00.387Z,25.10
2018-07-08T11:57:28.320Z,25.10
2018-07-08T11:59:56.272Z,24.70
2018-07-08T12:02:24.201Z,24.40
2018-07-08T12:04:52.139Z,25.00
2018-07-08T12:07:20.059Z,24.90
2018-07-08T12:09:48.000Z,24.90
2018-07-08T12:12:15.957Z,25.30
2018-07-08T12:14:43.896Z,24.60
2018-07-08T12:17:11.911Z,25.10
2018-07-08T12:19:39.855Z,25.00
2018-07-08T12:22:07.807Z,25.20
2018-07-08T12:24:35.781Z,26.00
2018-07-08T12:27:03.766Z,24.80
2018-07-08T12:29:32.600Z,25.10
2018-07-08T12:32:00.565Z,24.90
2018-07-08T12:34:28.499Z,25.20
2018-07-08T12:36:56.451Z,25.20
2018-07-08T12:39:24.362Z,24.90
2018-07-08T12:41:52.348Z,25.40
2018-07-08T12:44:20.264Z,25.20
2018-07-08T12:46:48.219Z,25.40
2018-07-08T12:49:16.215Z,25.60
2018-07-08T12:51:44.154Z,26.40
2018-07-08T12:54:12.141Z,26.40
2018-07-08T12:56:40.082Z,26.50
2018-07-08T12:59:08.011Z,26.40
2018-07-08T13:01:35.977Z,27.30
2018-07-08T13:04:03.993Z,26.90
2018-07-08T13:06:31.975Z,27.10
2018-07-08T13:08:59.903Z,27.40
2018-07-08T13:11:27.835Z,28.30
2018-07-08T13:13:55.775Z,28.30
2018-07-08T13:16:23.685Z,28.30
2018-07-08T13:18:51.659Z,27.70
2018-07-08T13:21:19.624Z,27.10
2018-07-08T13:23:47.537Z,28.50
2018-07-08T13:26:15.506Z,28.30
2018-07-08T13:28:43.433Z,28.80
2018-07-08T13:31:11.380Z,28.50
2018-07-08T13:33:39.274Z,28.20
2018-07-08T13:36:07.299Z,28.80
2018-07-08T13:38:35.229Z,28.60
2018-07-08T13:41:03.167Z,29.10
2018-07-08T13:43:31.145Z,29.40
2018-07-08T13:45:59.069Z,29.50
2018-07-08T13:48:27.041Z,28.60
2018-07-08T13:50:54.981Z,28.40
2018-07-08T13:53:22.966Z,28.90
2018-07-08T13:55:50.928Z,29.40
2018-07-08T13:58:18.942Z,28.40
2018-07-08T14:00:46.943Z,30.10
2018-07-08T14:03:14.889Z,29.00
2018-07-08T14:05:42.861Z,29.30
2018-07-08T14:08:10.789Z,30.10
2018-07-08T14:10:39.373Z,30.20
2018-07-08T14:13:07.736Z,29.90
2018-07-08T14:15:35.746Z,28.70
2018-07-08T14:18:03.743Z,28.60
2018-07-08T14:20:31.764Z,28.30
2018-07-08T14:22:59.640Z,27.50
2018-07-08T14:25:27.595Z,27.40
2018-07-08T14:27:55.572Z,27.40
2018-07-08T14:30:23.598Z,27.90
2018-07-08T14:32:51.571Z,28.60
2018-07-08T14:35:19.579Z,28.40
2018-07-08T14:37:47.520Z,27.70
2018-07-08T14:40:15.465Z,28.50
2018-07-08T14:42:43.402Z,29.40
2018-07-08T14:45:11.370Z,30.50
2018-07-08T14:47:39.287Z,31.20
2018-07-08T14:50:07.244Z,31.00
2018-07-08T14:52:35.243Z,31.00
2018-07-08T14:55:03.187Z,30.30
2018-07-08T14:57:31.169Z,28.90
2018-07-08T14:59:59.528Z,28.20
2018-07-08T15:02:27.484Z,28.60
2018-07-08T15:04:55.434Z,28.00
2018-07-08T15:07:23.420Z,28.00
2018-07-08T15:09:51.439Z,28.90
2018-07-08T15:12:19.303Z,28.00
2018-07-08T15:14:47.268Z,27.90
2018-07-08T15:17:15.199Z,27.70
2018-07-08T15:19:43.106Z,28.30
2018-07-08T15:22:11.043Z,28.50
2018-07-08T15:24:39.006Z,28.90
2018-07-08T15:27:07.003Z,29.20
2018-07-08T15:29:34.948Z,29.00
2018-07-08T15:32:02.908Z,28.70
2018-07-08T15:34:30.880Z,28.90
2018-07-08T15:36:58.789Z,29.00
2018-07-08T15:39:26.749Z,29.10
2018-07-08T15:41:54.661Z,29.40
2018-07-08T15:44:22.582Z,29.20
2018-07-08T15:46:50.580Z,28.90
2018-07-08T15:49:18.447Z,29.20
2018-07-08T15:51:46.422Z,28.60
2018-07-08T15:54:14.383Z,28.80
2018-07-08T15:56:42.291Z,29.00
2018-07-08T15:59:10.270Z,28.50
2018-07-08T16:01:38.238Z,28.70
2018-07-08T16:04:06.145Z,28.70
2018-07-08T16:06:34.120Z,28.50
2018-07-08T16:09:02.128Z,27.00
2018-07-08T16:11:30.064Z,27.00
2018-07-08T16:13:58.590Z,27.30
2018-07-08T16:16:26.677Z,28.20
2018-07-08T16:18:54.681Z,28.30
2018-07-08T16:21:22.545Z,28.00
2018-07-08T16:23:50.575Z,27.90
2018-07-08T16:26:18.517Z,27.70
2018-07-08T16:28:46.447Z,28.10
2018-07-08T16:31:14.482Z,27.60
2018-07-08T16:33:42.425Z,29.60
2018-07-08T16:36:10.398Z,29.00
2018-07-08T16:38:38.370Z,30.00
2018-07-08T16:41:06.327Z,29.60
2018-07-08T16:43:34.298Z,29.20
2018-07-08T16:46:02.242Z,29.50
2018-07-08T16:48:30.176Z,30.70
2018-07-08T16:50:58.189Z,29.60
2018-07-08T16:53:26.153Z,29.70
2018-07-08T16:55:54.129Z,30.10
2018-07-08T16:58:22.055Z,29.70
2018-07-08T17:00:49.999Z,30.30
2018-07-08T17:03:18.067Z,29.70
2018-07-08T17:05:45.980Z,29.80
2018-07-08T17:08:13.955Z,29.50
2018-07-08T17:10:41.877Z,30.10
2018-07-08T17:13:09.819Z,29.80
2018-07-08T17:15:37.749Z,29.60
2018-07-08T17:18:05.738Z,29.00
2018-07-08T17:20:33.724Z,29.20
2018-07-08T17:23:01.658Z,29.90
2018-07-08T17:25:29.592Z,29.40
2018-07-08T17:27:57.717Z,29.20
2018-07-08T17:30:25.772Z,29.70
2018-07-08T17:32:53.718Z,29.90
2018-07-08T17:35:21.689Z,30.20
2018-07-08T17:37:49.709Z,30.10
2018-07-08T17:40:17.684Z,29.50
2018-07-08T17:42:45.591Z,29.20
2018-07-08T17:45:13.552Z,29.10
2018-07-08T17:47:41.518Z,29.10
2018-07-08T17:50:09.398Z,29.00
2018-07-08T17:52:37.346Z,29.10
2018-07-08T17:55:05.439Z,29.30
2018-07-08T17:57:33.484Z,29.20
2018-07-08T18:00:01.513Z,29.00
2018-07-08T18:02:29.469Z,28.70
2018-07-08T18:04:57.588Z,27.80
2018-07-08T18:07:25.544Z,27.60
2018-07-08T18:09:53.488Z,26.80
2018-07-08T18:12:21.452Z,26.70
2018-07-08T18:14:49.420Z,26.50
2018-07-08T18:17:17.539Z,26.30
2018-07-08T18:19:45.464Z,26.30
2018-07-08T18:22:13.430Z,26.10
2018-07-08T18:24:41.348Z,26.30
2018-07-08T18:27:09.283Z,26.60
2018-07-08T18:29:37.236Z,26.40
2018-07-08T18:32:05.243Z,26.60
2018-07-08T18:34:33.219Z,26.40
2018-07-08T18:37:01.174Z,26.10
2018-07-08T18:39:29.424Z,26.70
2018-07-08T18:41:57.396Z,26.30
2018-07-08T18:44:25.342Z,26.30
2018-07-08T18:46:53.344Z,25.90
2018-07-08T18:49:21.259Z,25.60
2018-07-08T18:51:49.198Z,25.40
2018-07-08T18:54:17.140Z,24.90
2018-07-08T18:56:45.078Z,24.90
2018-07-08T18:59:13.045Z,24.80
2018-07-08T19:01:40.963Z,23.90
2018-07-08T19:04:08.946Z,23.80
2018-07-08T19:06:36.930Z,23.70
2018-07-08T19:09:06.256Z,24.30
2018-07-08T19:11:34.227Z,24.20
2018-07-08T19:14:04.675Z,24.40
2018-07-08T19:16:32.632Z,23.70
2018-07-08T19:19:00.921Z,23.90
2018-07-08T19:21:28.921Z,23.70
2018-07-08T19:23:56.896Z,23.80
2018-07-08T19:26:24.825Z,23.50
2018-07-08T19:28:52.799Z,23.40
2018-07-08T19:31:20.720Z,23.40
2018-07-08T19:33:48.667Z,23.00
2018-07-08T19:36:16.649Z,23.00
2018-07-08T19:38:44.621Z,22.90
2018-07-08T19:41:12.643Z,22.50
2018-07-08T19:43:40.591Z,22.70
2018-07-08T19:46:08.511Z,22.30
2018-07-08T19:48:36.517Z,22.30
2018-07-08T19:51:07.094Z,22.30
2018-07-08T19:53:35.105Z,22.40
2018-07-08T19:56:03.041Z,22.00
2018-07-08T19:58:30.965Z,21.90
2018-07-08T20:00:58.903Z,21.90
2018-07-08T20:03:27.013Z,21.80
2018-07-08T20:05:54.999Z,21.50
2018-07-08T20:08:22.925Z,21.60
2018-07-08T20:10:51.181Z,21.80
2018-07-08T20:13:19.195Z,21.40
2018-07-08T20:15:47.191Z,21.50
2018-07-08T20:18:15.150Z,21.50
2018-07-08T20:20:43.099Z,21.60
2018-07-08T20:23:11.023Z,21.20
2018-07-08T20:25:38.985Z,20.90
2018-07-08T20:28:09.473Z,20.80
2018-07-08T20:30:37.420Z,20.80
2018-07-08T20:33:05.438Z,20.70
2018-07-08T20:35:34.210Z,20.90
2018-07-08T20:38:02.328Z,20.60
2018-07-08T20:40:30.247Z,21.00
2018-07-08T20:42:58.233Z,21.00
2018-07-08T20:45:26.184Z,21.10
2018-07-08T20:47:54.126Z,20.80
2018-07-08T20:50:22.073Z,20.70
2018-07-08T20:52:54.255Z,20.90
2018-07-08T20:55:30.465Z,20.70
2018-07-08T20:58:07.008Z,20.70
2018-07-08T21:00:44.063Z,20.60
2018-07-08T21:03:16.635Z,20.40
2018-07-08T21:05:46.120Z,20.70
2018-07-08T21:08:19.449Z,20.60
2018-07-08T21:10:48.872Z,20.80
2018-07-08T21:13:18.431Z,20.50
2018-07-08T21:15:47.416Z,20.20
2018-07-08T21:18:16.391Z,20.30
2018-07-08T21:20:44.636Z,20.40
2018-07-08T21:23:16.825Z,20.20
2018-07-08T21:25:45.348Z,20.20
2018-07-08T21:28:14.376Z,20.00
2018-07-08T21:30:44.441Z,19.70
2018-07-08T21:33:13.435Z,19.70
2018-07-08T21:35:42.368Z,19.80
2018-07-08T21:38:11.774Z,19.80
2018-07-08T21:40:40.415Z,19.60
2018-07-08T21:43:09.258Z,19.50
2018-07-08T21:45:38.627Z,19.40
2018-07-08T21:48:07.813Z,19.50
2018-07-08T21:50:36.080Z,19.60
2018-07-08T21:53:05.662Z,19.30
2018-07-08T21:55:35.213Z,19.50
2018-07-08T21:58:03.696Z,19.50
2018-07-08T22:00:33.265Z,19.40
2018-07-08T22:03:01.622Z,19.50
2018-07-08T22:05:30.958Z,19.40
2018-07-08T22:08:05.719Z,19.40
2018-07-08T22:10:34.149Z,19.50
2018-07-08T22:13:03.942Z,19.50
2018-07-08T22:15:32.695Z,19.60
2018-07-08T22:18:02.381Z,19.40
2018-07-08T22:20:31.884Z,19.50
2018-07-08T22:23:01.159Z,19.30
2018-07-08T22:25:34.946Z,19.40
2018-07-08T22:28:03.129Z,19.40
2018-07-08T22:30:31.196Z,19.30
2018-07-08T22:32:59.479Z,19.30
2018-07-08T22:35:27.540Z,19.20
2018-07-08T22:37:55.709Z,18.90
2018-07-08T22:40:23.705Z,19.00
2018-07-08T22:42:51.791Z,19.00
2018-07-08T22:45:19.825Z,18.90
2018-07-08T22:47:48.033Z,19.00
2018-07-08T22:50:16.065Z,18.70
2018-07-08T22:52:44.051Z,18.70
2018-07-08T22:55:11.962Z,18.60
2018-07-08T22:57:39.921Z,18.50
2018-07-08T23:01:03.301Z,18.50
2018-07-08T23:03:55.376Z,18.60
2018-07-08T23:06:23.293Z,18.50
2018-07-08T23:08:51.841Z,18.30
2018-07-08T23:11:20.477Z,18.30
2018-07-08T23:13:49.387Z,18.30
2018-07-08T23:16:17.485Z,18.20
2018-07-08T23:18:45.399Z,18.20
2018-07-08T23:21:13.371Z,18.30
2018-07-08T23:23:41.300Z,18.20
2018-07-08T23:26:09.242Z,18.00
2018-07-08T23:28:37.628Z,18.10
2018-07-08T23:31:06.199Z,18.00
2018-07-08T23:33:34.172Z,18.10
2018-07-08T23:36:02.924Z,17.90
2018-07-08T23:38:31.317Z,17.70
2018-07-08T23:41:00.132Z,17.70
2018-07-08T23:43:28.166Z,17.90
2018-07-08T23:45:56.122Z,17.60
2018-07-08T23:48:24.136Z,17.80
2018-07-08T23:50:52.051Z,17.60
2018-07-08T23:53:20.024Z,17.40
2018-07-08T23:55:47.971Z,17.40
2018-07-08T23:58:15.943Z,17.30
